Brinkmann, Argentina
Current Conditions -  °F | °C
As of 1:00 AM on Monday 20 Oct 2014 (Local Time) from SACO Reporting Station
Clear Clear  
Wind Chill: 52°   Ceiling: Unl
Heat Index: 52°   Visibility: 6mi
Dew Point: 41°   Wind: 6mph
Humidity: 67%   Direction: 320°NW
Pressure: 30.21"   Gusts: NA
Location:  30.9°S, 62°W
Report Text: SACO 200400Z 32005KT CAVOK 11/05 Q1023
Loading
Personal Weather Stations






























Interactive Weather Map
Tropical Storm Tracking
New forecast layout! Learn more

10-Day Weather Forecast

Advertisements
Track Severe Weather on mobile